sensor_id;sensor_type;location;lat;lon;timestamp;pressure;altitude;pressure_sealevel;temperature;humidity
60337;BME280;46978;50.288;28.624;2023-03-03T00:01:01;99213.98;;;0.77;89.64
60337;BME280;46978;50.288;28.624;2023-03-03T00:02:03;99208.02;;;0.76;89.58
60337;BME280;46978;50.288;28.624;2023-03-03T00:03:06;99212.25;;;0.76;89.49
60337;BME280;46978;50.288;28.624;2023-03-03T00:04:09;99209.69;;;0.76;89.35
60337;BME280;46978;50.288;28.624;2023-03-03T00:05:10;99206.31;;;0.77;89.33
60337;BME280;46978;50.288;28.624;2023-03-03T00:06:13;99210.55;;;0.75;89.04
60337;BME280;46978;50.288;28.624;2023-03-03T00:07:15;99211.34;;;0.72;88.92
60337;BME280;46978;50.288;28.624;2023-03-03T00:08:18;99208.76;;;0.70;88.99
60337;BME280;46978;50.288;28.624;2023-03-03T00:09:20;99210.46;;;0.70;88.84
60337;BME280;46978;50.288;28.624;2023-03-03T00:10:21;99210.43;;;0.68;88.66
60337;BME280;46978;50.288;28.624;2023-03-03T00:11:23;99212.10;;;0.68;88.57
60337;BME280;46978;50.288;28.624;2023-03-03T00:12:28;99207.84;;;0.67;88.44
60337;BME280;46978;50.288;28.624;2023-03-03T00:13:31;99201.86;;;0.66;88.42
60337;BME280;46978;50.288;28.624;2023-03-03T00:14:33;99198.45;;;0.66;88.21
60337;BME280;46978;50.288;28.624;2023-03-03T00:15:35;99202.68;;;0.64;88.18
60337;BME280;46978;50.288;28.624;2023-03-03T00:16:37;99204.35;;;0.63;88.20
60337;BME280;46978;50.288;28.624;2023-03-03T00:17:39;99203.47;;;0.61;88.23
60337;BME280;46978;50.288;28.624;2023-03-03T00:18:44;99209.43;;;0.62;88.15
60337;BME280;46978;50.288;28.624;2023-03-03T00:19:46;99203.44;;;0.60;88.27
60337;BME280;46978;50.288;28.624;2023-03-03T00:20:54;99195.78;;;0.60;88.29
60337;BME280;46978;50.288;28.624;2023-03-03T00:21:55;99199.16;;;0.59;87.96
60337;BME280;46978;50.288;28.624;2023-03-03T00:24:35;99191.50;;;0.59;87.99
60337;BME280;46978;50.288;28.624;2023-03-03T00:25:40;99190.64;;;0.58;88.04
60337;BME280;46978;50.288;28.624;2023-03-03T00:26:49;99191.50;;;0.59;87.99
60337;BME280;46978;50.288;28.624;2023-03-03T00:27:51;99189.80;;;0.58;87.96
60337;BME280;46978;50.288;28.624;2023-03-03T00:28:52;99182.95;;;0.57;87.89
60337;BME280;46978;50.288;28.624;2023-03-03T00:29:58;99184.66;;;0.56;87.93
60337;BME280;46978;50.288;28.624;2023-03-03T00:31:10;99188.91;;;0.57;87.93
60337;BME280;46978;50.288;28.624;2023-03-03T00:33:31;99177.82;;;0.55;87.72
60337;BME280;46978;50.288;28.624;2023-03-03T00:34:35;99179.53;;;0.55;87.73
60337;BME280;46978;50.288;28.624;2023-03-03T00:35:37;99182.90;;;0.53;87.85
60337;BME280;46978;50.288;28.624;2023-03-03T00:36:40;99170.13;;;0.53;87.81
60337;BME280;46978;50.288;28.624;2023-03-03T00:37:42;99170.98;;;0.54;87.76
60337;BME280;46978;50.288;28.624;2023-03-03T00:38:44;99173.53;;;0.54;87.75
60337;BME280;46978;50.288;28.624;2023-03-03T00:39:46;99168.40;;;0.52;87.69
60337;BME280;46978;50.288;28.624;2023-03-03T00:40:48;99174.36;;;0.51;87.70
60337;BME280;46978;50.288;28.624;2023-03-03T00:41:50;99172.66;;;0.52;87.66
60337;BME280;46978;50.288;28.624;2023-03-03T00:42:54;99164.12;;;0.50;87.65
60337;BME280;46978;50.288;28.624;2023-03-03T00:43:56;99162.42;;;0.50;87.65
60337;BME280;46978;50.288;28.624;2023-03-03T00:44:58;99165.80;;;0.49;87.65
60337;BME280;46978;50.288;28.624;2023-03-03T00:46:01;99164.09;;;0.48;87.68
60337;BME280;46978;50.288;28.624;2023-03-03T00:47:23;99165.76;;;0.48;87.72
60337;BME280;46978;50.288;28.624;2023-03-03T00:48:28;99167.49;;;0.49;87.59
60337;BME280;46978;50.288;28.624;2023-03-03T00:49:30;99166.64;;;0.48;87.47
60337;BME280;46978;50.288;28.624;2023-03-03T00:50:35;99158.95;;;0.47;87.99
60337;BME280;46978;50.288;28.624;2023-03-03T00:51:38;99158.95;;;0.47;87.99
60337;BME280;46978;50.288;28.624;2023-03-03T00:52:44;99153.85;;;0.47;87.71
60337;BME280;46978;50.288;28.624;2023-03-03T00:53:45;99164.06;;;0.47;87.67
60337;BME280;46978;50.288;28.624;2023-03-03T00:54:47;99147.04;;;0.47;88.01
60337;BME280;46978;50.288;28.624;2023-03-03T00:55:50;99147.04;;;0.47;88.01
60337;BME280;46978;50.288;28.624;2023-03-03T00:56:52;99160.63;;;0.46;87.67
60337;BME280;46978;50.288;28.624;2023-03-03T00:57:54;99147.86;;;0.46;87.70
60337;BME280;46978;50.288;28.624;2023-03-03T00:58:55;99152.97;;;0.46;87.68
60337;BME280;46978;50.288;28.624;2023-03-03T00:59:57;99157.22;;;0.46;87.69
60337;BME280;46978;50.288;28.624;2023-03-03T01:00:58;99147.02;;;0.46;87.73
60337;BME280;46978;50.288;28.624;2023-03-03T01:02:00;99147.04;;;0.47;87.72
60337;BME280;46978;50.288;28.624;2023-03-03T01:03:12;99146.19;;;0.47;87.72
60337;BME280;46978;50.288;28.624;2023-03-03T01:04:09;99140.20;;;0.46;87.66
60337;BME280;46978;50.288;28.624;2023-03-03T01:05:15;99141.06;;;0.45;87.93
60337;BME280;46978;50.288;28.624;2023-03-03T01:06:17;99141.06;;;0.45;87.93
60337;BME280;46978;50.288;28.624;2023-03-03T01:07:19;99143.64;;;0.47;87.82
60337;BME280;46978;50.288;28.624;2023-03-03T01:08:21;99143.64;;;0.47;87.82
60337;BME280;46978;50.288;28.624;2023-03-03T01:09:23;99138.53;;;0.47;87.78
60337;BME280;46978;50.288;28.624;2023-03-03T01:10:26;99135.98;;;0.47;87.82
60337;BME280;46978;50.288;28.624;2023-03-03T01:11:28;99129.17;;;0.47;87.75
60337;BME280;46978;50.288;28.624;2023-03-03T01:12:30;99132.58;;;0.48;87.87
60337;BME280;46978;50.288;28.624;2023-03-03T01:13:33;99130.91;;;0.48;87.88
60337;BME280;46978;50.288;28.624;2023-03-03T01:14:36;99137.70;;;0.49;87.92
60337;BME280;46978;50.288;28.624;2023-03-03T01:15:38;99136.86;;;0.49;88.01
60337;BME280;46978;50.288;28.624;2023-03-03T01:16:40;99135.13;;;0.48;88.07
60337;BME280;46978;50.288;28.624;2023-03-03T01:17:42;99138.56;;;0.48;88.11
60337;BME280;46978;50.288;28.624;2023-03-03T01:19:45;99136.02;;;0.48;88.22
60337;BME280;46978;50.288;28.624;2023-03-03T01:20:47;99137.70;;;0.49;88.18
60337;BME280;46978;50.288;28.624;2023-03-03T01:21:48;99133.48;;;0.50;88.26
60337;BME280;46978;50.288;28.624;2023-03-03T01:22:50;99130.96;;;0.51;88.37
60337;BME280;46978;50.288;28.624;2023-03-03T01:23:52;99125.86;;;0.51;88.43
60337;BME280;46978;50.288;28.624;2023-03-03T01:24:53;99130.98;;;0.53;88.45
60337;BME280;46978;50.288;28.624;2023-03-03T01:25:55;99123.30;;;0.51;88.27
60337;BME280;46978;50.288;28.624;2023-03-03T01:26:57;99124.97;;;0.51;88.26
60337;BME280;46978;50.288;28.624;2023-03-03T01:27:59;99119.84;;;0.49;88.39
60337;BME280;46978;50.288;28.624;2023-03-03T01:29:00;99124.06;;;0.47;88.54
60337;BME280;46978;50.288;28.624;2023-03-03T01:30:04;99122.34;;;0.46;88.66
60337;BME280;46978;50.288;28.624;2023-03-03T01:31:06;99124.03;;;0.46;88.76
60337;BME280;46978;50.288;28.624;2023-03-03T01:32:07;99125.77;;;0.47;88.89
60337;BME280;46978;50.288;28.624;2023-03-03T01:33:09;99122.34;;;0.46;88.90
60337;BME280;46978;50.288;28.624;2023-03-03T01:34:11;99124.86;;;0.45;88.91
60337;BME280;46978;50.288;28.624;2023-03-03T01:35:12;99121.45;;;0.44;89.13
60337;BME280;46978;50.288;28.624;2023-03-03T01:36:14;99121.43;;;0.43;89.22
60337;BME280;46978;50.288;28.624;2023-03-03T01:37:16;99124.80;;;0.42;89.43
60337;BME280;46978;50.288;28.624;2023-03-03T01:38:18;99122.25;;;0.42;89.49
60337;BME280;46978;50.288;28.624;2023-03-03T01:39:19;99122.22;;;0.40;89.62
60337;BME280;46978;50.288;28.624;2023-03-03T01:40:26;99124.74;;;0.39;89.78
60337;BME280;46978;50.288;28.624;2023-03-03T01:41:30;99111.13;;;0.38;89.83
60337;BME280;46978;50.288;28.624;2023-03-03T01:42:31;99117.97;;;0.39;89.94
60337;BME280;46978;50.288;28.624;2023-03-03T01:43:33;99129.03;;;0.40;89.88
60337;BME280;46978;50.288;28.624;2023-03-03T01:44:35;99118.82;;;0.40;89.88
60337;BME280;46978;50.288;28.624;2023-03-03T01:48:16;99113.74;;;0.41;90.18
60337;BME280;46978;50.288;28.624;2023-03-03T01:49:25;99116.30;;;0.41;90.20
60337;BME280;46978;50.288;28.624;2023-03-03T01:51:47;99123.19;;;0.45;92.52
60337;BME280;46978;50.288;28.624;2023-03-03T01:52:46;99112.06;;;0.43;91.42
60337;BME280;46978;50.288;28.624;2023-03-03T01:53:50;99114.59;;;0.42;91.11
60337;BME280;46978;50.288;28.624;2023-03-03T01:55:02;99108.64;;;0.41;90.98
60337;BME280;46978;50.288;28.624;2023-03-03T01:56:06;99107.79;;;0.41;90.88
60337;BME280;46978;50.288;28.624;2023-03-03T01:57:15;99120.52;;;0.39;90.75
60337;BME280;46978;50.288;28.624;2023-03-03T01:58:24;99112.84;;;0.38;90.78
60337;BME280;46978;50.288;28.624;2023-03-03T01:59:34;99112.84;;;0.38;90.87
60337;BME280;46978;50.288;28.624;2023-03-03T02:00:38;99100.05;;;0.36;90.93
60337;BME280;46978;50.288;28.624;2023-03-03T02:01:41;99101.74;;;0.37;90.98
60337;BME280;46978;50.288;28.624;2023-03-03T02:02:43;99097.49;;;0.36;90.99
60337;BME280;46978;50.288;28.624;2023-03-03T02:03:46;99102.56;;;0.34;91.17
60337;BME280;46978;50.288;28.624;2023-03-03T02:04:48;99102.56;;;0.34;91.17
60337;BME280;46978;50.288;28.624;2023-03-03T02:05:53;99099.98;;;0.33;91.24
60337;BME280;46978;50.288;28.624;2023-03-03T02:06:59;99100.81;;;0.32;91.44
60337;BME280;46978;50.288;28.624;2023-03-03T02:08:01;99104.18;;;0.31;91.45
60337;BME280;46978;50.288;28.624;2023-03-03T02:09:06;99096.52;;;0.31;91.58
60337;BME280;46978;50.288;28.624;2023-03-03T02:10:16;99098.20;;;0.29;91.64
60337;BME280;46978;50.288;28.624;2023-03-03T02:11:20;99095.67;;;0.30;91.67
60337;BME280;46978;50.288;28.624;2023-03-03T02:12:40;99093.13;;;0.30;91.48
60337;BME280;46978;50.288;28.624;2023-03-03T02:13:42;99095.67;;;0.30;91.32
60337;BME280;46978;50.288;28.624;2023-03-03T02:14:44;99097.38;;;0.30;91.57
60337;BME280;46978;50.288;28.624;2023-03-03T02:15:46;99093.95;;;0.29;91.67
60337;BME280;46978;50.288;28.624;2023-03-03T02:16:48;99094.77;;;0.27;91.71
60337;BME280;46978;50.288;28.624;2023-03-03T02:17:52;99094.77;;;0.27;91.71
60337;BME280;46978;50.288;28.624;2023-03-03T02:18:55;99089.66;;;0.27;91.66
60337;BME280;46978;50.288;28.624;2023-03-03T02:20:04;99095.62;;;0.27;91.76
60337;BME280;46978;50.288;28.624;2023-03-03T02:21:19;99087.94;;;0.26;91.80
60337;BME280;46978;50.288;28.624;2023-03-03T02:22:30;99093.86;;;0.25;91.82
60337;BME280;46978;50.288;28.624;2023-03-03T02:25:08;99088.75;;;0.25;91.96
60337;BME280;46978;50.288;28.624;2023-03-03T02:26:14;99091.28;;;0.23;92.02
60337;BME280;46978;50.288;28.624;2023-03-03T02:27:17;99086.14;;;0.22;92.10
60337;BME280;46978;50.288;28.624;2023-03-03T02:28:18;99090.40;;;0.21;92.16
60337;BME280;46978;50.288;28.624;2023-03-03T02:29:21;99083.59;;;0.22;92.09
60337;BME280;46978;50.288;28.624;2023-03-03T02:30:25;99086.14;;;0.22;92.01
60337;BME280;46978;50.288;28.624;2023-03-03T02:31:29;99081.04;;;0.22;91.98
60337;BME280;46978;50.288;28.624;2023-03-03T02:32:30;99085.27;;;0.20;92.02
60337;BME280;46978;50.288;28.624;2023-03-03T02:33:32;99082.71;;;0.20;92.04
60337;BME280;46978;50.288;28.624;2023-03-03T02:34:48;99081.87;;;0.19;92.08
60337;BME280;46978;50.288;28.624;2023-03-03T02:35:51;99086.97;;;0.19;91.98
60337;BME280;46978;50.288;28.624;2023-03-03T02:36:53;99084.42;;;0.19;91.97
60337;BME280;46978;50.288;28.624;2023-03-03T02:38:10;99081.83;;;0.17;91.97
60337;BME280;46978;50.288;28.624;2023-03-03T02:39:18;99083.53;;;0.18;91.88
60337;BME280;46978;50.288;28.624;2023-03-03T02:40:23;99082.66;;;0.16;91.84
60337;BME280;46978;50.288;28.624;2023-03-03T02:41:50;99081.80;;;0.16;91.98
60337;BME280;46978;50.288;28.624;2023-03-03T02:42:31;99076.67;;;0.14;92.02
60337;BME280;46978;50.288;28.624;2023-03-03T02:45:13;99078.37;;;0.15;92.07
60337;BME280;46978;50.288;28.624;2023-03-03T02:46:15;99070.66;;;0.12;92.05
60337;BME280;46978;50.288;28.624;2023-03-03T02:47:16;99071.55;;;0.13;92.09
60337;BME280;46978;50.288;28.624;2023-03-03T02:48:18;99077.50;;;0.13;92.11
60337;BME280;46978;50.288;28.624;2023-03-03T02:49:25;99069.02;;;0.14;92.09
60337;BME280;46978;50.288;28.624;2023-03-03T02:50:27;99077.50;;;0.13;92.09
60337;BME280;46978;50.288;28.624;2023-03-03T02:51:29;99077.50;;;0.13;92.07
60337;BME280;46978;50.288;28.624;2023-03-03T02:52:30;99068.98;;;0.13;92.06
60337;BME280;46978;50.288;28.624;2023-03-03T02:53:32;99065.56;;;0.12;92.16
60337;BME280;46978;50.288;28.624;2023-03-03T02:54:34;99068.96;;;0.11;92.19
60337;BME280;46978;50.288;28.624;2023-03-03T02:55:36;99069.78;;;0.10;92.28
60337;BME280;46978;50.288;28.624;2023-03-03T02:56:38;99064.68;;;0.10;92.30
60337;BME280;46978;50.288;28.624;2023-03-03T02:57:40;99062.13;;;0.10;92.28
60337;BME280;46978;50.288;28.624;2023-03-03T02:58:42;99062.19;;;0.13;92.29
60337;BME280;46978;50.288;28.624;2023-03-03T02:59:43;99061.37;;;0.14;92.28
60337;BME280;46978;50.288;28.624;2023-03-03T03:00:45;99064.77;;;0.15;92.16
60337;BME280;46978;50.288;28.624;2023-03-03T03:01:47;99054.56;;;0.15;91.98
60337;BME280;46978;50.288;28.624;2023-03-03T03:02:51;99055.41;;;0.15;91.92
60337;BME280;46978;50.288;28.624;2023-03-03T03:03:53;99059.66;;;0.15;91.90
60337;BME280;46978;50.288;28.624;2023-03-03T03:04:54;99054.56;;;0.15;91.96
60337;BME280;46978;50.288;28.624;2023-03-03T03:05:56;99061.37;;;0.14;91.89
60337;BME280;46978;50.288;28.624;2023-03-03T03:06:58;99054.53;;;0.13;91.75
60337;BME280;46978;50.288;28.624;2023-03-03T03:08:00;99048.58;;;0.13;91.78
60337;BME280;46978;50.288;28.624;2023-03-03T03:09:02;99043.45;;;0.11;91.84
60337;BME280;46978;50.288;28.624;2023-03-03T03:10:05;99042.56;;;0.11;91.87
60337;BME280;46978;50.288;28.624;2023-03-03T03:11:06;99048.55;;;0.11;91.85
60337;BME280;46978;50.288;28.624;2023-03-03T03:12:08;99047.67;;;0.11;91.76
60337;BME280;46978;50.288;28.624;2023-03-03T03:13:10;99051.95;;;0.12;91.87
60337;BME280;46978;50.288;28.624;2023-03-03T03:14:12;99047.67;;;0.11;91.92
60337;BME280;46978;50.288;28.624;2023-03-03T03:15:14;99041.72;;;0.10;91.85
60337;BME280;46978;50.288;28.624;2023-03-03T03:16:17;99042.54;;;0.09;91.84
60337;BME280;46978;50.288;28.624;2023-03-03T03:17:18;99037.41;;;0.08;91.87
60337;BME280;46978;50.288;28.624;2023-03-03T03:18:20;99044.23;;;0.09;91.96
60337;BME280;46978;50.288;28.624;2023-03-03T03:19:22;99039.14;;;0.09;91.96
60337;BME280;46978;50.288;28.624;2023-03-03T03:20:24;99035.73;;;0.08;91.99
60337;BME280;46978;50.288;28.624;2023-03-03T03:21:25;99038.29;;;0.08;92.04
60337;BME280;46978;50.288;28.624;2023-03-03T03:22:27;99038.29;;;0.08;91.99
60337;BME280;46978;50.288;28.624;2023-03-03T03:23:29;99039.95;;;0.08;91.92
60337;BME280;46978;50.288;28.624;2023-03-03T03:24:30;99035.73;;;0.08;91.83
60337;BME280;46978;50.288;28.624;2023-03-03T03:25:32;99034.01;;;0.07;91.85
60337;BME280;46978;50.288;28.624;2023-03-03T03:26:34;99032.30;;;0.08;91.83
60337;BME280;46978;50.288;28.624;2023-03-03T03:27:36;99033.19;;;0.08;91.83
60337;BME280;46978;50.288;28.624;2023-03-03T03:28:37;99026.36;;;0.07;91.78
60337;BME280;46978;50.288;28.624;2023-03-03T03:29:39;99037.41;;;0.08;91.66
60337;BME280;46978;50.288;28.624;2023-03-03T03:30:42;99029.73;;;0.06;91.55
60337;BME280;46978;50.288;28.624;2023-03-03T03:31:43;99031.45;;;0.07;91.63
60337;BME280;46978;50.288;28.624;2023-03-03T03:32:45;99029.73;;;0.06;91.55
60337;BME280;46978;50.288;28.624;2023-03-03T03:33:47;99034.83;;;0.06;91.66
60337;BME280;46978;50.288;28.624;2023-03-03T03:34:49;99033.98;;;0.06;91.67
60337;BME280;46978;50.288;28.624;2023-03-03T03:35:51;99029.73;;;0.06;91.63
60337;BME280;46978;50.288;28.624;2023-03-03T03:36:53;99031.42;;;0.06;91.62
60337;BME280;46978;50.288;28.624;2023-03-03T03:37:54;99033.98;;;0.06;91.60
60337;BME280;46978;50.288;28.624;2023-03-03T03:38:56;99029.73;;;0.06;91.59
60337;BME280;46978;50.288;28.624;2023-03-03T03:39:57;99033.13;;;0.05;91.50
60337;BME280;46978;50.288;28.624;2023-03-03T03:40:59;99025.45;;;0.04;91.46
60337;BME280;46978;50.288;28.624;2023-03-03T03:42:01;99030.58;;;0.05;91.44
60337;BME280;46978;50.288;28.624;2023-03-03T03:43:03;99029.70;;;0.05;91.45
60337;BME280;46978;50.288;28.624;2023-03-03T03:44:04;99028.88;;;0.06;91.39
60337;BME280;46978;50.288;28.624;2023-03-03T03:45:06;99028.88;;;0.06;91.41
60337;BME280;46978;50.288;28.624;2023-03-03T03:46:08;99029.75;;;0.08;91.34
60337;BME280;46978;50.288;28.624;2023-03-03T03:47:10;99024.66;;;0.08;91.27
60337;BME280;46978;50.288;28.624;2023-03-03T03:48:12;99028.91;;;0.07;91.20
60337;BME280;46978;50.288;28.624;2023-03-03T03:49:13;99023.77;;;0.06;90.99
60337;BME280;46978;50.288;28.624;2023-03-03T03:50:15;99021.22;;;0.06;90.97
60337;BME280;46978;50.288;28.624;2023-03-03T03:51:17;99021.20;;;0.04;90.93
60337;BME280;46978;50.288;28.624;2023-03-03T03:52:19;99028.03;;;0.05;90.98
60337;BME280;46978;50.288;28.624;2023-03-03T03:53:20;99025.48;;;0.05;90.98
60337;BME280;46978;50.288;28.624;2023-03-03T03:54:22;99018.64;;;0.04;90.99
60337;BME280;46978;50.288;28.624;2023-03-03T03:55:24;99027.14;;;0.05;90.92
60337;BME280;46978;50.288;28.624;2023-03-03T03:56:25;99021.20;;;0.04;91.00
60337;BME280;46978;50.288;28.624;2023-03-03T03:57:27;99016.94;;;0.05;91.01
60337;BME280;46978;50.288;28.624;2023-03-03T03:58:29;99008.44;;;0.04;90.85
60337;BME280;46978;50.288;28.624;2023-03-03T03:59:30;99005.89;;;0.04;90.83
60337;BME280;46978;50.288;28.624;2023-03-03T04:00:32;99016.09;;;0.04;90.85
60337;BME280;46978;50.288;28.624;2023-03-03T04:01:34;99011.81;;;0.03;90.80
60337;BME280;46978;50.288;28.624;2023-03-03T04:02:36;98999.06;;;0.03;90.84
60337;BME280;46978;50.288;28.624;2023-03-03T04:03:37;99016.06;;;0.03;90.90
60337;BME280;46978;50.288;28.624;2023-03-03T04:04:39;99005.86;;;0.03;90.88
60337;BME280;46978;50.288;28.624;2023-03-03T04:05:41;99002.47;;;0.02;91.00
60337;BME280;46978;50.288;28.624;2023-03-03T04:06:43;99005.02;;;0.02;91.09
60337;BME280;46978;50.288;28.624;2023-03-03T04:07:45;98993.14;;;0.04;91.09
60337;BME280;46978;50.288;28.624;2023-03-03T04:08:46;99005.07;;;0.05;91.01
60337;BME280;46978;50.288;28.624;2023-03-03T04:09:48;99003.37;;;0.06;91.01
60337;BME280;46978;50.288;28.624;2023-03-03T04:10:50;98993.19;;;0.07;91.07
60337;BME280;46978;50.288;28.624;2023-03-03T04:11:52;98994.04;;;0.08;91.08
60337;BME280;46978;50.288;28.624;2023-03-03T04:12:53;98989.80;;;0.07;90.87
60337;BME280;46978;50.288;28.624;2023-03-03T04:13:55;98989.80;;;0.07;90.85
60337;BME280;46978;50.288;28.624;2023-03-03T04:14:57;98986.33;;;0.05;90.90
60337;BME280;46978;50.288;28.624;2023-03-03T04:15:59;98979.53;;;0.04;90.93
60337;BME280;46978;50.288;28.624;2023-03-03T04:17:00;98985.48;;;0.04;90.95
60337;BME280;46978;50.288;28.624;2023-03-03T04:18:03;98981.20;;;0.03;90.74
60337;BME280;46978;50.288;28.624;2023-03-03T04:19:04;98980.36;;;0.03;90.84
60337;BME280;46978;50.288;28.624;2023-03-03T04:20:08;98975.23;;;0.01;90.99
60337;BME280;46978;50.288;28.624;2023-03-03T04:21:12;98972.70;;;0.03;91.03
60337;BME280;46978;50.288;28.624;2023-03-03T04:22:14;98971.85;;;0.02;90.79
60337;BME280;46978;50.288;28.624;2023-03-03T04:23:16;98979.50;;;0.02;90.77
60337;BME280;46978;50.288;28.624;2023-03-03T04:24:18;98974.38;;;0.01;90.76
60337;BME280;46978;50.288;28.624;2023-03-03T04:25:19;98970.98;;;0.00;90.71
60337;BME280;46978;50.288;28.624;2023-03-03T04:26:21;98970.98;;;0.00;90.69
60337;BME280;46978;50.288;28.624;2023-03-03T04:27:23;98974.38;;;0.01;90.29
60337;BME280;46978;50.288;28.624;2023-03-03T04:28:25;98970.13;;;0.01;90.36
60337;BME280;46978;50.288;28.624;2023-03-03T04:29:26;98964.20;;;0.02;90.23
60337;BME280;46978;50.288;28.624;2023-03-03T04:30:30;98967.59;;;0.03;89.80
60337;BME280;46978;50.288;28.624;2023-03-03T04:31:31;98967.57;;;0.01;89.00
60337;BME280;46978;50.288;28.624;2023-03-03T04:32:33;98970.18;;;0.04;88.83
60337;BME280;46978;50.288;28.624;2023-03-03T04:33:35;98965.88;;;0.02;87.43
60337;BME280;46978;50.288;28.624;2023-03-03T04:34:36;98970.16;;;0.03;87.60
60337;BME280;46978;50.288;28.624;2023-03-03T04:35:38;98960.80;;;0.03;87.16
60337;BME280;46978;50.288;28.624;2023-03-03T04:36:41;98959.13;;;0.04;86.98
60337;BME280;46978;50.288;28.624;2023-03-03T04:37:43;98964.23;;;0.04;86.87
60337;BME280;46978;50.288;28.624;2023-03-03T04:38:45;98965.08;;;0.04;87.04
60337;BME280;46978;50.288;28.624;2023-03-03T04:39:46;98964.25;;;0.05;87.05
60337;BME280;46978;50.288;28.624;2023-03-03T04:40:48;98964.25;;;0.05;87.23
60337;BME280;46978;50.288;28.624;2023-03-03T04:41:50;98962.55;;;0.06;87.53
60337;BME280;46978;50.288;28.624;2023-03-03T04:42:51;98956.66;;;0.08;87.67
60337;BME280;46978;50.288;28.624;2023-03-03T04:43:53;98960.05;;;0.09;87.73
60337;BME280;46978;50.288;28.624;2023-03-03T04:44:55;98963.45;;;0.09;87.47
60337;BME280;46978;50.288;28.624;2023-03-03T04:45:56;98958.33;;;0.08;87.22
60337;BME280;46978;50.288;28.624;2023-03-03T04:46:58;98961.76;;;0.08;87.53
60337;BME280;46978;50.288;28.624;2023-03-03T04:48:00;98952.41;;;0.09;87.72
60337;BME280;46978;50.288;28.624;2023-03-03T04:49:02;98954.98;;;0.10;87.66
60337;BME280;46978;50.288;28.624;2023-03-03T04:50:04;98955.80;;;0.09;87.63
60337;BME280;46978;50.288;28.624;2023-03-03T04:51:06;98957.53;;;0.10;87.21
60337;BME280;46978;50.288;28.624;2023-03-03T04:52:07;98957.53;;;0.10;87.21
60337;BME280;46978;50.288;28.624;2023-03-03T04:53:09;98954.98;;;0.10;87.36
60337;BME280;46978;50.288;28.624;2023-03-03T04:54:11;98960.93;;;0.11;85.22
60337;BME280;46978;50.288;28.624;2023-03-03T04:55:12;98960.91;;;0.09;83.49
60337;BME280;46978;50.288;28.624;2023-03-03T04:56:14;98960.08;;;0.10;83.50
60337;BME280;46978;50.288;28.624;2023-03-03T04:57:16;98957.53;;;0.10;83.87
60337;BME280;46978;50.288;28.624;2023-03-03T04:58:18;98963.48;;;0.11;83.97
60337;BME280;46978;50.288;28.624;2023-03-03T04:59:20;98960.91;;;0.09;84.25
60337;BME280;46978;50.288;28.624;2023-03-03T05:00:22;98964.36;;;0.11;84.13
60337;BME280;46978;50.288;28.624;2023-03-03T05:01:24;98961.84;;;0.13;84.30
60337;BME280;46978;50.288;28.624;2023-03-03T05:02:26;98957.59;;;0.13;84.62
60337;BME280;46978;50.288;28.624;2023-03-03T05:03:27;98956.77;;;0.14;84.82
60337;BME280;46978;50.288;28.624;2023-03-03T05:04:29;98954.23;;;0.16;84.84
60337;BME280;46978;50.288;28.624;2023-03-03T05:05:31;98958.48;;;0.17;84.85
60337;BME280;46978;50.288;28.624;2023-03-03T05:06:32;98956.84;;;0.19;84.77
60337;BME280;46978;50.288;28.624;2023-03-03T05:07:34;98956.84;;;0.19;84.64
60337;BME280;46978;50.288;28.624;2023-03-03T05:08:36;98955.14;;;0.20;84.71
60337;BME280;46978;50.288;28.624;2023-03-03T05:09:38;98950.88;;;0.20;84.63
60337;BME280;46978;50.288;28.624;2023-03-03T05:10:40;98950.03;;;0.20;83.61
60337;BME280;46978;50.288;28.624;2023-03-03T05:11:41;98954.28;;;0.19;82.99
60337;BME280;46978;50.288;28.624;2023-03-03T05:12:43;98950.03;;;0.20;83.08
60337;BME280;46978;50.288;28.624;2023-03-03T05:13:45;98947.48;;;0.20;83.34
60337;BME280;46978;50.288;28.624;2023-03-03T05:14:46;98948.33;;;0.20;83.52
60337;BME280;46978;50.288;28.624;2023-03-03T05:15:50;98944.95;;;0.21;83.58
60337;BME280;46978;50.288;28.624;2023-03-03T05:16:53;98951.81;;;0.24;83.76
60337;BME280;46978;50.288;28.624;2023-03-03T05:17:55;98945.88;;;0.26;83.71
60337;BME280;46978;50.288;28.624;2023-03-03T05:18:57;98945.88;;;0.26;83.67
60337;BME280;46978;50.288;28.624;2023-03-03T05:19:58;98945.08;;;0.29;83.70
60337;BME280;46978;50.288;28.624;2023-03-03T05:21:00;98941.69;;;0.28;83.48
60337;BME280;46978;50.288;28.624;2023-03-03T05:22:02;98945.95;;;0.31;83.48
60337;BME280;46978;50.288;28.624;2023-03-03T05:23:03;98952.81;;;0.33;83.49
60337;BME280;46978;50.288;28.624;2023-03-03T05:24:05;98952.84;;;0.35;83.25
60337;BME280;46978;50.288;28.624;2023-03-03T05:25:07;98950.31;;;0.37;83.21
60337;BME280;46978;50.288;28.624;2023-03-03T05:26:09;98941.83;;;0.38;83.15
60337;BME280;46978;50.288;28.624;2023-03-03T05:27:10;98948.66;;;0.40;83.03
60337;BME280;46978;50.288;28.624;2023-03-03T05:28:12;98941.00;;;0.40;82.44
60337;BME280;46978;50.288;28.624;2023-03-03T05:29:14;98940.16;;;0.40;82.45
60337;BME280;46978;50.288;28.624;2023-03-03T05:30:16;98941.86;;;0.39;82.34
60337;BME280;46978;50.288;28.624;2023-03-03T05:31:17;98938.45;;;0.40;82.38
60337;BME280;46978;50.288;28.624;2023-03-03T05:32:19;98945.28;;;0.41;82.26
60337;BME280;46978;50.288;28.624;2023-03-03T05:33:20;98943.58;;;0.42;81.84
60337;BME280;46978;50.288;28.624;2023-03-03T05:34:22;98941.86;;;0.39;81.35
60337;BME280;46978;50.288;28.624;2023-03-03T05:35:25;98943.53;;;0.39;81.74
60337;BME280;46978;50.288;28.624;2023-03-03T05:36:27;98943.53;;;0.39;81.93
60337;BME280;46978;50.288;28.624;2023-03-03T05:37:28;98939.30;;;0.39;82.13
60337;BME280;46978;50.288;28.624;2023-03-03T05:38:30;98945.25;;;0.40;81.59
60337;BME280;46978;50.288;28.624;2023-03-03T05:39:32;98950.34;;;0.38;81.61
60337;BME280;46978;50.288;28.624;2023-03-03T05:40:35;98940.16;;;0.40;81.84
60337;BME280;46978;50.288;28.624;2023-03-03T05:41:37;98944.44;;;0.41;82.02
60337;BME280;46978;50.288;28.624;2023-03-03T05:42:38;98946.10;;;0.40;82.10
60337;BME280;46978;50.288;28.624;2023-03-03T05:43:40;98944.45;;;0.42;82.13